createdAt,value
2022-09-20T00:01:29.939Z,7.42
2022-09-20T00:03:58.594Z,6.98
2022-09-20T00:06:27.911Z,7.23
2022-09-20T00:08:55.442Z,7.23
2022-09-20T00:11:34.036Z,7.12
2022-09-20T00:14:02.882Z,7.18
2022-09-20T00:16:32.459Z,7.23
2022-09-20T00:19:03.898Z,7.46
2022-09-20T00:21:32.005Z,7.48
2022-09-20T00:23:58.919Z,7.50
2022-09-20T00:26:27.204Z,7.35
2022-09-20T00:28:54.178Z,7.26
2022-09-20T00:31:20.857Z,6.83
2022-09-20T00:34:06.177Z,7.28
2022-09-20T00:36:32.879Z,7.47
2022-09-20T00:39:02.444Z,7.41
2022-09-20T00:41:31.225Z,7.37
2022-09-20T00:43:58.378Z,7.40
2022-09-20T00:46:24.991Z,6.91
2022-09-20T00:48:57.597Z,6.48
2022-09-20T00:51:31.328Z,6.76
2022-09-20T00:54:02.674Z,6.56
2022-09-20T00:56:36.114Z,6.32
2022-09-20T00:59:17.958Z,6.41
2022-09-20T01:01:48.958Z,6.41
2022-09-20T01:04:16.441Z,6.15
2022-09-20T01:06:46.333Z,6.32
2022-09-20T01:09:12.946Z,6.04
2022-09-20T01:11:40.835Z,6.13
2022-09-20T01:14:08.177Z,6.07
2022-09-20T01:16:36.374Z,6.16
2022-09-20T01:19:16.436Z,6.21
2022-09-20T01:21:45.378Z,6.20
2022-09-20T01:24:39.864Z,6.25
2022-09-20T01:27:16.045Z,6.24
2022-09-20T01:30:12.380Z,6.28
2022-09-20T01:32:54.255Z,6.20
2022-09-20T01:35:25.160Z,6.07
2022-09-20T01:38:05.234Z,5.97
2022-09-20T01:40:48.926Z,5.95
2022-09-20T01:43:34.694Z,5.96
2022-09-20T01:46:24.478Z,6.01
2022-09-20T01:48:59.944Z,6.11
2022-09-20T01:51:52.363Z,5.93
2022-09-20T01:54:58.040Z,6.20
2022-09-20T01:57:50.023Z,6.12
2022-09-20T02:00:58.786Z,6.11
2022-09-20T02:03:37.265Z,5.97
2022-09-20T02:06:42.568Z,5.89
2022-09-20T02:09:37.414Z,5.97
2022-09-20T02:12:33.867Z,5.95
2022-09-20T02:15:18.798Z,6.03
2022-09-20T02:18:19.295Z,6.14
2022-09-20T02:21:03.431Z,5.86
2022-09-20T02:23:44.933Z,5.88
2022-09-20T02:26:37.968Z,5.71
2022-09-20T02:29:23.017Z,5.73
2022-09-20T02:32:15.026Z,5.72
2022-09-20T02:34:44.441Z,5.83
2022-09-20T02:37:42.202Z,6.05
2022-09-20T02:40:26.967Z,5.95
2022-09-20T02:43:05.861Z,6.05
2022-09-20T02:45:52.839Z,6.03
2022-09-20T02:48:27.639Z,5.79
2022-09-20T02:51:12.007Z,5.71
2022-09-20T02:53:57.285Z,5.85
2022-09-20T02:56:38.601Z,5.43
2022-09-20T02:59:18.259Z,5.31
2022-09-20T03:02:05.781Z,5.33
2022-09-20T03:04:44.406Z,5.37
2022-09-20T03:07:48.835Z,5.54
2022-09-20T03:10:35.950Z,5.39
2022-09-20T03:13:23.902Z,5.37
2022-09-20T03:16:02.997Z,5.33
2022-09-20T03:18:37.159Z,5.53
2022-09-20T03:21:06.721Z,5.41
2022-09-20T03:24:04.470Z,5.40
2022-09-20T03:26:52.348Z,5.45
2022-09-20T03:29:56.206Z,5.23
2022-09-20T03:32:52.582Z,5.44
2022-09-20T03:35:25.029Z,5.19
2022-09-20T03:38:00.779Z,5.12
2022-09-20T03:40:46.365Z,5.02
2022-09-20T03:43:26.724Z,5.19
2022-09-20T03:46:15.531Z,4.99
2022-09-20T03:49:04.233Z,4.94
2022-09-20T03:52:02.115Z,5.10
2022-09-20T03:54:43.673Z,4.89
2022-09-20T03:57:13.238Z,5.01
2022-09-20T04:00:11.859Z,4.77
2022-09-20T04:03:00.649Z,4.86
2022-09-20T04:05:41.704Z,4.57
2022-09-20T04:08:21.370Z,4.82
2022-09-20T04:11:11.505Z,4.72
2022-09-20T04:13:44.110Z,4.61
2022-09-20T04:16:23.247Z,4.35
2022-09-20T04:18:56.938Z,4.87
2022-09-20T04:21:37.815Z,4.79
2022-09-20T04:24:36.606Z,4.90
2022-09-20T04:27:12.972Z,4.82
2022-09-20T04:30:00.742Z,4.61
2022-09-20T04:32:42.298Z,4.76
2022-09-20T04:36:04.333Z,4.68
2022-09-20T04:38:31.445Z,4.40
2022-09-20T04:41:06.793Z,4.57
2022-09-20T04:44:04.858Z,4.47
2022-09-20T04:46:56.427Z,4.58
2022-09-20T04:49:33.648Z,4.63
2022-09-20T04:52:04.133Z,4.57
2022-09-20T04:54:59.873Z,4.70
2022-09-20T04:58:04.707Z,4.59
2022-09-20T05:00:53.404Z,4.37
2022-09-20T05:03:40.302Z,4.37
2022-09-20T05:06:30.655Z,3.87
2022-09-20T05:09:13.572Z,4.42
2022-09-20T05:11:59.004Z,4.32
2022-09-20T05:14:41.740Z,4.23
2022-09-20T05:17:37.204Z,4.29
2022-09-20T05:21:05.341Z,4.11
2022-09-20T05:23:40.001Z,4.10
2022-09-20T05:26:44.101Z,4.38
2022-09-20T05:29:19.449Z,4.46
2022-09-20T05:32:02.029Z,4.24
2022-09-20T05:34:42.361Z,4.37
2022-09-20T05:37:24.194Z,4.40
2022-09-20T05:40:18.561Z,4.40
2022-09-20T05:42:52.299Z,4.83
2022-09-20T05:45:44.036Z,4.71
2022-09-20T05:48:15.967Z,4.68
2022-09-20T05:51:06.598Z,4.82
2022-09-20T05:53:50.902Z,4.90
2022-09-20T05:56:38.838Z,4.91
2022-09-20T05:59:25.877Z,4.91
2022-09-20T06:02:22.282Z,5.12
2022-09-20T06:05:10.571Z,5.38
2022-09-20T06:07:56.560Z,5.28
2022-09-20T06:10:43.462Z,5.22
2022-09-20T06:13:47.591Z,5.61
2022-09-20T06:16:31.442Z,5.67
2022-09-20T06:19:16.786Z,5.76
2022-09-20T06:21:52.106Z,5.94
2022-09-20T06:24:43.685Z,6.07
2022-09-20T06:27:32.414Z,6.08
2022-09-20T06:30:05.774Z,6.05
2022-09-20T06:32:34.219Z,6.01
2022-09-20T06:35:03.470Z,6.27
2022-09-20T06:38:11.745Z,6.29
2022-09-20T06:41:08.843Z,6.45
2022-09-20T06:43:40.361Z,6.60
2022-09-20T06:46:07.771Z,6.50
2022-09-20T06:48:34.418Z,6.65
2022-09-20T06:51:01.698Z,6.82
2022-09-20T06:53:32.553Z,7.07
2022-09-20T06:56:00.733Z,7.04
2022-09-20T06:58:28.211Z,7.26
2022-09-20T07:00:54.898Z,7.38
2022-09-20T07:03:21.565Z,7.45
2022-09-20T07:05:48.254Z,7.15
2022-09-20T07:08:16.537Z,7.66
2022-09-20T07:10:43.933Z,7.80
2022-09-20T07:13:13.354Z,8.02
2022-09-20T07:15:40.029Z,8.09
2022-09-20T07:18:07.809Z,8.02
2022-09-20T07:20:34.946Z,8.04
2022-09-20T07:23:02.572Z,8.23
2022-09-20T07:25:30.625Z,8.11
2022-09-20T07:27:57.688Z,7.94
2022-09-20T07:30:24.475Z,8.45
2022-09-20T07:32:51.051Z,8.67
2022-09-20T07:35:18.006Z,8.75
2022-09-20T07:37:44.722Z,8.92
2022-09-20T07:40:11.865Z,8.87
2022-09-20T07:42:38.920Z,9.08
2022-09-20T07:45:06.966Z,9.12
2022-09-20T07:47:35.258Z,9.22
2022-09-20T07:50:02.787Z,9.29
2022-09-20T07:52:29.524Z,9.52
2022-09-20T07:54:56.283Z,9.54
2022-09-20T07:57:23.247Z,9.71
2022-09-20T07:59:49.853Z,9.69
2022-09-20T08:02:16.941Z,9.87
2022-09-20T08:04:43.858Z,9.86
2022-09-20T08:07:10.970Z,10.29
2022-09-20T08:09:37.669Z,10.02
2022-09-20T08:14:52.489Z,10.41
2022-09-20T08:17:19.509Z,10.34
2022-09-20T08:19:46.298Z,10.49
2022-09-20T08:22:13.244Z,10.56
2022-09-20T08:24:39.959Z,10.67
2022-09-20T08:27:06.520Z,10.83
2022-09-20T08:29:33.144Z,10.89
2022-09-20T08:32:01.446Z,10.99
2022-09-20T08:34:28.242Z,11.02
2022-09-20T08:36:56.477Z,11.03
2022-09-20T08:42:14.123Z,11.33
2022-09-20T08:45:00.020Z,11.03
2022-09-20T08:47:31.044Z,11.48
2022-09-20T08:49:59.092Z,11.54
2022-09-20T08:52:35.892Z,11.63
2022-09-20T08:55:13.394Z,11.81
2022-09-20T08:57:40.015Z,11.57
2022-09-20T09:00:07.439Z,11.78
2022-09-20T09:02:34.373Z,11.91
2022-09-20T09:05:03.066Z,11.84
2022-09-20T09:07:30.665Z,11.85
2022-09-20T09:09:57.279Z,12.05
2022-09-20T09:12:34.266Z,12.11
2022-09-20T09:15:17.597Z,12.43
2022-09-20T09:17:44.421Z,12.25
2022-09-20T09:20:22.712Z,12.53
2022-09-20T09:23:06.814Z,12.30
2022-09-20T09:25:38.301Z,12.47
2022-09-20T09:28:07.718Z,12.52
2022-09-20T09:30:47.706Z,12.83
2022-09-20T09:33:17.209Z,13.09
2022-09-20T09:35:52.986Z,12.86
2022-09-20T09:38:24.096Z,12.98
2022-09-20T09:40:54.474Z,13.10
2022-09-20T09:43:26.879Z,13.01
2022-09-20T09:45:53.959Z,13.28
2022-09-20T09:48:25.713Z,13.25
2022-09-20T09:51:15.260Z,13.54
2022-09-20T09:53:43.308Z,13.29
2022-09-20T09:56:21.962Z,13.56
2022-09-20T09:59:02.258Z,13.52
2022-09-20T10:01:33.538Z,13.62
2022-09-20T10:04:27.066Z,13.70
2022-09-20T10:07:18.590Z,13.67
2022-09-20T10:10:15.509Z,13.80
2022-09-20T10:12:57.033Z,13.82
2022-09-20T10:15:42.008Z,13.79
2022-09-20T10:18:43.904Z,13.83
2022-09-20T10:21:37.013Z,14.03
2022-09-20T10:24:18.835Z,14.22
2022-09-20T10:26:54.663Z,14.10
2022-09-20T10:29:30.242Z,14.17
2022-09-20T10:31:57.267Z,14.01
2022-09-20T10:34:59.318Z,14.33
2022-09-20T10:37:49.381Z,14.41
2022-09-20T10:40:16.934Z,14.23
2022-09-20T10:43:09.906Z,14.25
2022-09-20T10:46:14.539Z,14.42
2022-09-20T10:48:48.535Z,14.29
2022-09-20T10:51:39.269Z,14.50
2022-09-20T10:54:08.882Z,14.65
2022-09-20T10:56:47.050Z,14.46
2022-09-20T10:59:35.464Z,14.63
2022-09-20T11:02:02.010Z,14.53
2022-09-20T11:04:48.066Z,14.60
2022-09-20T11:07:24.490Z,14.46
2022-09-20T11:09:59.631Z,14.66
2022-09-20T11:12:38.176Z,14.37
2022-09-20T11:15:34.994Z,15.22
2022-09-20T11:18:13.394Z,14.89
2022-09-20T11:20:49.108Z,14.95
2022-09-20T11:23:25.160Z,15.32
2022-09-20T11:25:56.793Z,14.99
2022-09-20T11:29:12.405Z,15.25
2022-09-20T11:31:44.036Z,15.11
2022-09-20T11:34:14.952Z,15.82
2022-09-20T11:37:03.070Z,15.38
2022-09-20T11:39:46.189Z,15.19
2022-09-20T11:42:20.235Z,15.22
2022-09-20T11:44:47.163Z,15.45
2022-09-20T11:47:49.816Z,15.31
2022-09-20T11:50:44.284Z,15.40
2022-09-20T11:53:25.924Z,15.51
2022-09-20T11:56:05.116Z,15.36
2022-09-20T11:58:33.062Z,15.39
2022-09-20T12:00:59.980Z,15.05
2022-09-20T12:03:37.382Z,15.36
2022-09-20T12:06:21.004Z,15.27
2022-09-20T12:08:51.177Z,15.16
2022-09-20T12:11:29.726Z,15.29
2022-09-20T12:14:01.475Z,15.07
2022-09-20T12:16:43.512Z,15.03
2022-09-20T12:19:21.394Z,15.40
2022-09-20T12:22:14.295Z,15.33
2022-09-20T12:24:45.106Z,15.84
2022-09-20T12:27:29.146Z,15.58
2022-09-20T12:30:20.789Z,15.51
2022-09-20T12:32:54.030Z,15.65
2022-09-20T12:35:35.626Z,18.35
2022-09-20T12:38:25.729Z,18.71
2022-09-20T12:41:12.893Z,19.88
2022-09-20T12:44:00.238Z,23.50
2022-09-20T12:46:33.673Z,23.38
2022-09-20T12:49:38.194Z,22.43
2022-09-20T12:52:23.354Z,21.46
2022-09-20T12:54:56.378Z,22.24
2022-09-20T12:57:32.105Z,24.09
2022-09-20T13:00:01.824Z,22.61
2022-09-20T13:02:57.395Z,22.73
2022-09-20T13:05:33.405Z,22.34
2022-09-20T13:08:17.810Z,23.97
2022-09-20T13:11:00.806Z,23.46
2022-09-20T13:13:57.499Z,22.59
2022-09-20T13:16:31.022Z,22.00
2022-09-20T13:19:08.078Z,24.43
2022-09-20T13:21:38.022Z,20.75
2022-09-20T13:24:05.938Z,17.22
2022-09-20T13:26:53.048Z,18.37
2022-09-20T13:29:30.420Z,20.89
2022-09-20T13:32:22.515Z,23.50
2022-09-20T13:35:29.350Z,21.31
2022-09-20T13:37:58.834Z,24.22
2022-09-20T13:40:33.523Z,23.78
2022-09-20T13:43:23.061Z,22.88
2022-09-20T13:45:56.306Z,23.48
2022-09-20T13:48:29.813Z,23.21
2022-09-20T13:50:57.320Z,18.94
2022-09-20T13:53:41.429Z,17.21
2022-09-20T13:56:23.165Z,21.18
2022-09-20T13:58:51.344Z,22.49
2022-09-20T14:01:35.442Z,21.07
2022-09-20T14:04:17.511Z,21.65
2022-09-20T14:06:45.272Z,21.94
2022-09-20T14:09:23.551Z,22.93
2022-09-20T14:11:50.897Z,21.03
2022-09-20T14:14:22.143Z,21.10
2022-09-20T14:16:50.175Z,22.46
2022-09-20T14:19:20.192Z,23.61
2022-09-20T14:21:48.418Z,22.72
2022-09-20T14:24:14.972Z,20.80
2022-09-20T14:26:59.193Z,22.17
2022-09-20T14:29:40.735Z,23.27
2022-09-20T14:32:19.382Z,22.60
2022-09-20T14:34:51.554Z,22.15
2022-09-20T14:37:31.358Z,22.22
2022-09-20T14:40:00.972Z,22.42
2022-09-20T14:42:27.547Z,21.25
2022-09-20T14:44:54.643Z,20.90
2022-09-20T14:47:36.468Z,20.16
2022-09-20T14:50:05.258Z,22.26
2022-09-20T14:52:37.182Z,21.79
2022-09-20T14:55:19.762Z,21.29
2022-09-20T14:57:47.588Z,20.72
2022-09-20T15:00:16.865Z,20.81
2022-09-20T15:02:45.400Z,20.71
2022-09-20T15:05:21.552Z,22.03
2022-09-20T15:07:48.133Z,22.55
2022-09-20T15:10:15.262Z,20.93
2022-09-20T15:12:42.308Z,20.91
2022-09-20T15:15:14.949Z,19.63
2022-09-20T15:17:42.524Z,19.14
2022-09-20T15:20:23.762Z,21.05
2022-09-20T15:22:50.721Z,20.31
2022-09-20T15:25:20.772Z,20.67
2022-09-20T15:27:49.339Z,19.87
2022-09-20T15:30:19.530Z,19.55
2022-09-20T15:32:47.028Z,19.41
2022-09-20T15:35:14.544Z,19.36
2022-09-20T15:37:41.752Z,19.86
2022-09-20T15:40:09.311Z,19.24
2022-09-20T15:42:37.897Z,17.79
2022-09-20T15:45:08.886Z,15.40
2022-09-20T15:47:39.212Z,15.06
2022-09-20T15:50:08.565Z,14.81
2022-09-20T15:52:39.790Z,14.84
2022-09-20T15:55:07.377Z,14.40
2022-09-20T15:57:34.918Z,14.28
2022-09-20T16:00:01.732Z,14.37
2022-09-20T16:02:29.238Z,14.14
2022-09-20T16:04:55.891Z,13.90
2022-09-20T16:07:26.301Z,13.99
2022-09-20T16:09:54.637Z,13.88
2022-09-20T16:12:22.884Z,13.75
2022-09-20T16:14:50.019Z,13.64
2022-09-20T16:17:17.695Z,13.69
2022-09-20T16:19:48.530Z,13.48
2022-09-20T16:22:15.983Z,13.55
2022-09-20T16:24:42.557Z,13.37
2022-09-20T16:27:09.903Z,13.45
2022-09-20T16:29:36.693Z,13.41
2022-09-20T16:32:03.825Z,13.46
2022-09-20T16:34:33.717Z,13.48
2022-09-20T16:37:07.448Z,13.45
2022-09-20T16:39:34.634Z,13.33
2022-09-20T16:42:06.060Z,13.59
2022-09-20T16:44:34.406Z,13.29
2022-09-20T16:47:01.218Z,13.53
2022-09-20T16:49:28.729Z,13.31
2022-09-20T16:51:55.553Z,12.97
2022-09-20T16:54:22.216Z,12.41
2022-09-20T16:56:50.662Z,12.79
2022-09-20T16:59:21.301Z,12.36
2022-09-20T17:01:49.686Z,12.15
2022-09-20T17:04:21.112Z,12.30
2022-09-20T17:06:49.150Z,12.24
2022-09-20T17:09:16.536Z,12.28
2022-09-20T17:11:45.853Z,11.79
2022-09-20T17:14:13.923Z,11.79
2022-09-20T17:16:41.978Z,11.67
2022-09-20T17:19:11.018Z,11.63
2022-09-20T17:21:40.056Z,11.53
2022-09-20T17:24:07.361Z,11.51
2022-09-20T17:26:40.200Z,11.38
2022-09-20T17:29:10.215Z,11.39
2022-09-20T17:31:39.311Z,11.25
2022-09-20T17:34:09.661Z,10.90
2022-09-20T17:36:46.957Z,10.93
2022-09-20T17:39:15.623Z,10.90
2022-09-20T17:41:44.802Z,10.85
2022-09-20T17:44:12.138Z,10.58
2022-09-20T17:46:43.871Z,10.53
2022-09-20T17:49:12.849Z,10.58
2022-09-20T17:51:45.112Z,10.59
2022-09-20T17:54:15.476Z,10.41
2022-09-20T17:56:47.266Z,10.29
2022-09-20T17:59:18.198Z,10.21
2022-09-20T18:01:47.202Z,10.16
2022-09-20T18:04:13.889Z,10.20
2022-09-20T18:06:44.991Z,10.21
2022-09-20T18:09:15.286Z,10.13
2022-09-20T18:11:45.306Z,9.99
2022-09-20T18:14:15.414Z,9.84
2022-09-20T18:16:44.183Z,9.94
2022-09-20T18:19:11.103Z,9.95
2022-09-20T18:21:39.345Z,10.00
2022-09-20T18:24:07.054Z,10.00
2022-09-20T18:26:34.567Z,9.84
2022-09-20T18:29:17.657Z,10.04
2022-09-20T18:31:54.199Z,10.14
2022-09-20T18:34:22.812Z,9.91
2022-09-20T18:36:55.114Z,10.00
2022-09-20T18:39:24.089Z,9.86
2022-09-20T18:41:53.103Z,9.97
2022-09-20T18:44:20.842Z,9.76
2022-09-20T18:46:47.882Z,9.86
2022-09-20T18:49:16.693Z,10.09
2022-09-20T18:51:44.512Z,10.08
2022-09-20T18:54:12.179Z,9.91
2022-09-20T18:56:46.167Z,9.71
2022-09-20T18:59:22.018Z,9.76
2022-09-20T19:01:48.753Z,9.69
2022-09-20T19:04:52.343Z,9.71
2022-09-20T19:07:27.991Z,9.86
2022-09-20T19:10:06.306Z,9.64
2022-09-20T19:13:11.987Z,9.74
2022-09-20T19:15:44.698Z,9.68
2022-09-20T19:18:29.922Z,9.93
2022-09-20T19:21:02.949Z,9.87
2022-09-20T19:24:22.374Z,10.06
2022-09-20T19:26:49.466Z,9.81
2022-09-20T19:29:22.077Z,10.00
2022-09-20T19:31:50.681Z,9.65
2022-09-20T19:34:24.694Z,9.58
2022-09-20T19:37:05.989Z,9.68
2022-09-20T19:39:47.912Z,9.67
2022-09-20T19:42:29.150Z,9.45
2022-09-20T19:45:02.027Z,9.68
2022-09-20T19:47:34.521Z,9.55
2022-09-20T19:50:16.087Z,9.57
2022-09-20T19:52:44.181Z,9.87
2022-09-20T19:55:13.370Z,9.60
2022-09-20T19:57:46.862Z,9.62
2022-09-20T20:00:19.471Z,9.61
2022-09-20T20:02:46.279Z,9.56
2022-09-20T20:05:15.277Z,9.65
2022-09-20T20:08:12.516Z,9.64
2022-09-20T20:11:03.135Z,9.55
2022-09-20T20:14:04.542Z,9.71
2022-09-20T20:16:53.758Z,9.72
2022-09-20T20:19:57.582Z,9.84
2022-09-20T20:22:39.677Z,9.67
2022-09-20T20:25:21.314Z,9.77
2022-09-20T20:27:48.024Z,9.80
2022-09-20T20:30:14.736Z,9.78
2022-09-20T20:32:41.534Z,10.03
2022-09-20T20:35:08.577Z,9.89
2022-09-20T20:37:35.133Z,9.87
2022-09-20T20:40:02.479Z,9.90
2022-09-20T20:42:29.023Z,9.67
2022-09-20T20:44:55.603Z,9.97
2022-09-20T20:47:23.002Z,9.78
2022-09-20T20:49:53.335Z,9.98
2022-09-20T20:52:19.893Z,9.77
2022-09-20T20:54:46.439Z,9.69
2022-09-20T20:57:13.096Z,9.83
2022-09-20T20:59:39.650Z,9.82
2022-09-20T21:02:08.116Z,9.93
2022-09-20T21:04:35.274Z,9.95
2022-09-20T21:07:01.905Z,10.33
2022-09-20T21:09:28.520Z,10.01
2022-09-20T21:11:55.140Z,10.11
2022-09-20T21:14:21.728Z,9.76
2022-09-20T21:16:48.600Z,9.75
2022-09-20T21:19:16.393Z,9.95
2022-09-20T21:21:47.884Z,9.93
2022-09-20T21:24:17.207Z,9.85
2022-09-20T21:26:44.417Z,10.30
2022-09-20T21:29:12.254Z,10.35
2022-09-20T21:31:40.845Z,10.14
2022-09-20T21:34:08.934Z,10.20
2022-09-20T21:36:37.413Z,9.97
2022-09-20T21:39:05.591Z,9.72
2022-09-20T21:41:35.556Z,9.98
2022-09-20T21:44:04.672Z,10.14
2022-09-20T21:46:34.268Z,10.04
2022-09-20T21:49:06.560Z,10.10
2022-09-20T21:51:35.545Z,9.97
2022-09-20T21:54:02.532Z,9.86
2022-09-20T21:56:35.059Z,9.93
2022-09-20T21:59:03.918Z,10.20
2022-09-20T22:01:34.555Z,10.26
2022-09-20T22:04:05.482Z,10.36
2022-09-20T22:06:38.340Z,10.43
2022-09-20T22:09:08.352Z,10.51
2022-09-20T22:11:40.757Z,10.17
2022-09-20T22:14:08.850Z,10.21
2022-09-20T22:16:37.863Z,10.24
2022-09-20T22:19:06.876Z,10.44
2022-09-20T22:21:36.770Z,10.35
2022-09-20T22:24:06.892Z,10.52
2022-09-20T22:26:39.219Z,10.36
2022-09-20T22:29:06.518Z,10.42
2022-09-20T22:31:35.771Z,10.37
2022-09-20T22:34:05.773Z,10.24
2022-09-20T22:36:38.098Z,10.18
2022-09-20T22:39:09.955Z,10.16
2022-09-20T22:41:37.790Z,9.88
2022-09-20T22:44:05.398Z,10.31
2022-09-20T22:46:32.981Z,10.23
2022-09-20T22:49:00.338Z,10.05
2022-09-20T22:51:33.170Z,9.66
2022-09-20T22:54:00.870Z,9.90
2022-09-20T22:56:29.562Z,10.05
2022-09-20T22:58:57.281Z,9.64
2022-09-20T23:01:32.788Z,9.57
2022-09-20T23:04:04.366Z,9.74
2022-09-20T23:06:39.934Z,9.43
2022-09-20T23:09:12.268Z,9.71
2022-09-20T23:11:41.898Z,9.69
2022-09-20T23:14:11.577Z,9.77
2022-09-20T23:16:39.834Z,9.73
2022-09-20T23:19:07.809Z,9.59
2022-09-20T23:21:36.392Z,9.49
2022-09-20T23:24:05.595Z,9.64
2022-09-20T23:26:33.836Z,9.78
2022-09-20T23:29:06.887Z,9.52
2022-09-20T23:31:36.443Z,9.50
2022-09-20T23:34:05.267Z,9.53
2022-09-20T23:36:34.191Z,9.50
2022-09-20T23:39:00.921Z,9.51
2022-09-20T23:41:28.274Z,9.41
2022-09-20T23:43:55.146Z,9.44
2022-09-20T23:46:24.296Z,9.31
2022-09-20T23:48:51.132Z,9.52
2022-09-20T23:51:20.892Z,9.23
2022-09-20T23:53:47.539Z,9.28
2022-09-20T23:56:14.536Z,9.37
2022-09-20T23:58:43.010Z,9.18
